Meteo Giornale » Osservazioni meteo Argentina » Buenos Aires
ore: 15:00 - Osservazioni Meteo Buenos Aires
Lat. 34° 40' S Lon. 58° 38' W Alt. 30 metri s.l.m.
19 °C
Sereno
Temp. 24 Ore
13 °C
21 °C
Est/Sud-Est
13 Km/h
Dew point 12 °C
Umidità 63 %
Visibilità 10 Km
Il sole sorge alle ore 07:14
Il sole tramonta alle ore 18:35
| Data e Ora | Cielo e Fenomeni | T °C | DP °C | Um. % | Pres. hPa | Vis. km | Vento km/h | |
|---|---|---|---|---|---|---|---|---|
| Oggi h: 15:00 | Sereno | 19 | 12 | 63 | 1014 | 10 | E/SE 13 | |
| Oggi h: 14:00 | Sereno | 19 | 12 | 63 | 1014 | 10 | E/SE 9.3 | |
| Oggi h: 13:00 | Sereno | 18 | 12 | 67 | 1015 | 10 | SE 13 | |
| Oggi h: 12:00 | Molto Nuvoloso | 17 | 12 | 72 | 1016 | 10 | N 0 | |
| Oggi h: 11:00 | Molto Nuvoloso | 16 | 12 | 77 | 1015 | 10 | N 3.7 | |
| Oggi h: 10:00 | Molto Nuvoloso | 15 | 12 | 82 | 1015 | 10 | NE 9.3 | |
| Oggi h: 09:00 | Molto Nuvoloso | 14 | 12 | 87 | 1014 | 10 | N/NE 13 | |
| Oggi h: 07:00 | Coperto | 13 | 11 | 87 | 1015 | 10 | N 7.4 | |
| Oggi h: 06:00 | Sereno | 14 | 12 | 87 | 1014 | 10 | N/NE 16.7 | |
| Oggi h: 05:00 | Sereno | 15 | 12 | 82 | 1014 | 10 | N/NE 16.7 | |
| Oggi h: 04:00 | Sereno | 16 | 11 | 72 | 1013 | 10 | NE 18.5 | |
| Oggi h: 03:00 | Sereno | 16 | 11 | 72 | 1015 | 10 | NE 13 | |
| Oggi h: 02:00 | Sereno | 15 | 10 | 72 | 1014 | 10 | N 5.5 | |
| Oggi h: 01:00 | Sereno | 16 | 9 | 63 | 1015 | 10 | N 3.7 | |
| Oggi h: 00:00 | Sereno | 16 | 9 | 63 | 1015 | 10 | E/NE 14.8 | |
| Ieri h: 23:00 | Sereno | 15 | 10 | 72 | 1017 | 10 | N 1.8 | |
| Ieri h: 22:00 | Sereno | 16 | 10 | 67 | 1015 | 10 | E 7.4 | |
| Ieri h: 21:00 | Sereno | 16 | 8 | 58 | 1015 | 10 | E 9.3 | |
| Ieri h: 20:00 | Sereno | 17 | 5 | 45 | 1015 | 10 | E 9.3 | |
| Ieri h: 19:00 | Sereno | 19 | 7 | 45 | 1014 | 10 | E 11.1 | |
| Ieri h: 18:00 | Sereno | 20 | 5 | 37 | 1014 | 10 | NE 7.4 | |
| Ieri h: 17:00 | Sereno | 21 | 5 | 35 | 1014 | 10 | NE 13 | |



